Time;durP1;ratioP1;P1;durP2;ratioP2;P2;SDS_P1;SDS_P2;PMS_P1;PMS_P2;Temp;Humidity;BMP_temperature;BMP_pressure;BME280_temperature;BME280_humidity;BME280_pressure;Samples;Min_cycle;Max_cycle;Signal;HPM_P1;HPM_P2
2023/02/01 00:00:11;;;;;;;122.80;91.35;;;19.20;83.90;;;;;;1854348;76;21131;-86
2023/02/01 00:02:42;;;;;;;99.40;66.28;;;19.20;83.80;;;;;;1877514;76;21151;-84
2023/02/01 00:05:13;;;;;;;96.22;65.17;;;19.20;83.90;;;;;;1882902;76;21137;-85
2023/02/01 00:07:45;;;;;;;95.38;64.32;;;19.20;83.80;;;;;;1875440;76;21167;-85
2023/02/01 00:10:17;;;;;;;101.50;69.77;;;19.20;83.80;;;;;;1835240;77;21138;-84
2023/02/01 00:12:47;;;;;;;93.33;65.40;;;19.20;83.80;;;;;;1857717;76;21197;-85
2023/02/01 00:15:19;;;;;;;95.42;66.20;;;19.20;83.50;;;;;;1858900;76;21248;-85
2023/02/01 00:17:51;;;;;;;96.55;66.87;;;19.30;83.10;;;;;;1876837;76;21088;-86
2023/02/01 00:20:22;;;;;;;99.45;65.67;;;19.30;82.30;;;;;;1829539;77;21199;-85
2023/02/01 00:22:52;;;;;;;96.78;68.28;;;19.30;82.20;;;;;;1869650;76;21111;-86
2023/02/01 00:25:25;;;;;;;104.58;67.25;;;19.40;82.40;;;;;;1874072;76;21225;-85
2023/02/01 00:27:59;;;;;;;101.60;67.62;;;19.30;82.60;;;;;;1871007;76;21146;-85
2023/02/01 00:30:31;;;;;;;104.93;69.10;;;19.30;82.60;;;;;;1804386;79;21398;-86
2023/02/01 00:33:02;;;;;;;107.70;68.35;;;19.30;82.30;;;;;;1861520;76;21197;-85
2023/02/01 00:35:34;;;;;;;100.60;67.20;;;19.40;81.60;;;;;;1817059;77;21174;-86
2023/02/01 00:38:05;;;;;;;100.75;67.45;;;19.40;81.20;;;;;;1798485;79;21104;-84
2023/02/01 00:40:36;;;;;;;103.95;64.95;;;19.40;81.00;;;;;;1872269;76;21088;-85
2023/02/01 00:43:06;;;;;;;90.75;63.65;;;19.40;80.80;;;;;;1875137;76;21181;-86
2023/02/01 00:45:37;;;;;;;91.28;62.03;;;19.50;80.20;;;;;;1830524;77;21171;-85
2023/02/01 00:48:08;;;;;;;92.60;67.42;;;19.60;79.70;;;;;;1832542;77;21596;-85
2023/02/01 00:50:43;;;;;;;99.92;67.08;;;19.60;79.30;;;;;;1860893;75;21225;-84
2023/02/01 00:53:15;;;;;;;95.83;66.70;;;19.60;79.10;;;;;;1871901;75;21702;-83
2023/02/01 00:55:49;;;;;;;99.40;67.80;;;19.70;79.10;;;;;;1871222;75;21206;-83
2023/02/01 00:58:20;;;;;;;102.55;68.57;;;19.80;79.10;;;;;;1869020;76;21159;-71
2023/02/01 01:00:53;;;;;;;103.75;71.22;;;19.90;78.50;;;;;;1811578;77;21178;-70
2023/02/01 01:03:23;;;;;;;101.75;67.55;;;19.90;78.10;;;;;;1797780;78;21090;-70
2023/02/01 01:05:57;;;;;;;102.67;71.45;;;20.00;78.00;;;;;;1866242;76;21166;-71
2023/02/01 01:08:29;;;;;;;107.47;73.60;;;20.10;77.60;;;;;;1860419;76;21163;-71
2023/02/01 01:11:01;;;;;;;103.15;73.45;;;20.10;77.30;;;;;;1830736;77;21088;-71
2023/02/01 01:13:32;;;;;;;101.60;70.62;;;20.20;76.70;;;;;;1827214;77;21258;-71
2023/02/01 01:16:04;;;;;;;100.10;71.40;;;20.20;76.40;;;;;;1862773;75;21156;-71
2023/02/01 01:18:36;;;;;;;99.87;72.67;;;20.30;76.20;;;;;;1873699;75;21154;-71
2023/02/01 01:21:13;;;;;;;111.68;76.28;;;20.30;75.60;;;;;;1804323;77;21208;-70
2023/02/01 01:23:42;;;;;;;104.38;74.42;;;20.40;75.00;;;;;;1868588;76;21139;-70
2023/02/01 01:26:19;;;;;;;100.42;75.20;;;20.50;74.50;;;;;;1823613;77;21214;-70
2023/02/01 01:28:50;;;;;;;103.07;72.93;;;20.50;74.00;;;;;;1869055;75;21216;-70
2023/02/01 01:31:23;;;;;;;102.95;75.05;;;20.60;74.00;;;;;;1878523;76;21132;-70
2023/02/01 01:33:56;;;;;;;102.87;75.45;;;20.60;73.80;;;;;;1797995;79;21155;-69
2023/02/01 01:36:29;;;;;;;96.80;68.55;;;20.70;72.60;;;;;;1803745;78;21194;-70
2023/02/01 01:39:00;;;;;;;98.45;69.30;;;20.80;72.70;;;;;;1860499;75;21159;-70
2023/02/01 01:41:33;;;;;;;94.03;68.75;;;20.90;72.30;;;;;;1869215;75;21176;-72
2023/02/01 01:44:06;;;;;;;96.92;68.17;;;20.90;71.90;;;;;;1876228;74;21143;-71
2023/02/01 01:46:40;;;;;;;88.00;65.72;;;20.90;71.80;;;;;;1832030;77;21135;-70
2023/02/01 01:49:31;;;;;;;88.78;63.70;;;21.00;71.50;;;;;;1861448;76;21219;-70
2023/02/01 01:52:03;;;;;;;93.45;63.98;;;21.10;71.10;;;;;;1896889;74;21543;-70
2023/02/01 01:54:40;;;;;;;90.85;63.75;;;21.10;70.90;;;;;;1914209;73;21158;-70
2023/02/01 01:57:13;;;;;;;94.35;66.82;;;21.20;70.60;;;;;;1924858;73;21582;-69
2023/02/01 01:59:46;;;;;;;89.62;63.08;;;21.20;70.20;;;;;;1913663;73;21103;-69
2023/02/01 02:02:17;;;;;;;88.95;61.33;;;21.30;70.30;;;;;;1918170;74;21058;-70
2023/02/01 02:04:49;;;;;;;93.72;63.83;;;21.40;70.20;;;;;;1926447;73;21550;-71
2023/02/01 02:07:29;;;;;;;80.53;59.90;;;21.40;69.80;;;;;;1922380;73;21116;-71
2023/02/01 02:10:05;;;;;;;80.20;58.52;;;21.50;69.40;;;;;;1923148;73;21155;-70
2023/02/01 02:12:37;;;;;;;78.87;57.40;;;21.50;68.90;;;;;;1924036;74;21146;-70
2023/02/01 02:15:14;;;;;;;80.22;58.87;;;21.60;68.70;;;;;;1919670;74;21146;-70
2023/02/01 02:18:12;;;;;;;78.45;58.17;;;21.60;68.40;;;;;;1914873;74;21248;-70
2023/02/01 02:20:51;;;;;;;86.50;58.40;;;21.70;68.20;;;;;;1921490;74;21122;-70
2023/02/01 02:23:41;;;;;;;72.42;58.68;;;21.80;67.90;;;;;;1867173;75;21169;-71
2023/02/01 02:26:30;;;;;;;76.50;56.88;;;21.80;67.60;;;;;;1914844;73;21174;-68
2023/02/01 02:29:24;;;;;;;85.72;58.87;;;21.90;67.40;;;;;;1922719;74;21166;-70
2023/02/01 02:32:17;;;;;;;83.10;57.38;;;22.00;67.20;;;;;;1918830;73;21162;-71
2023/02/01 02:35:00;;;;;;;69.75;54.50;;;22.10;66.90;;;;;;1919462;74;21154;-72
2023/02/01 02:37:51;;;;;;;80.40;56.37;;;22.10;66.60;;;;;;1918244;74;21196;-70
2023/02/01 02:40:39;;;;;;;80.75;57.25;;;22.20;66.50;;;;;;1917148;74;21828;-69
2023/02/01 02:49:22;;;;;;;79.65;58.38;;;22.40;66.00;;;;;;1918504;73;21217;-70
2023/02/01 02:54:47;;;;;;;76.45;56.75;;;22.60;65.50;;;;;;1922742;73;21130;-71
2023/02/01 03:06:01;;;;;;;101.97;76.90;;;22.90;65.70;;;;;;1916547;74;21646;-71
2023/02/01 03:08:33;;;;;;;79.60;53.55;;;23.00;63.80;;;;;;1916601;73;21150;-71
2023/02/01 03:11:09;;;;;;;79.35;52.43;;;23.10;62.60;;;;;;1921681;73;21220;-70
2023/02/01 03:13:51;;;;;;;78.92;54.55;;;23.20;61.80;;;;;;1918171;73;21111;-74
2023/02/01 03:16:34;;;;;;;75.17;53.75;;;23.30;62.60;;;;;;1891203;74;21120;-70
2023/02/01 03:19:16;;;;;;;81.30;55.78;;;23.40;62.50;;;;;;1918446;74;21599;-70
2023/02/01 03:21:55;;;;;;;77.67;55.30;;;23.50;62.80;;;;;;1896720;74;21632;-72
2023/02/01 03:24:32;;;;;;;87.15;58.00;;;23.60;62.70;;;;;;1878089;75;21120;-70
2023/02/01 03:27:06;;;;;;;75.03;55.17;;;23.70;62.60;;;;;;1895351;74;21159;-71
2023/02/01 03:29:57;;;;;;;71.10;53.00;;;23.70;62.50;;;;;;1920187;73;21122;-71
2023/02/01 03:32:28;;;;;;;79.32;56.75;;;23.80;62.30;;;;;;1920361;74;21145;-71
2023/02/01 03:34:59;;;;;;;69.37;52.45;;;23.90;61.90;;;;;;1921715;73;21599;-70
2023/02/01 03:37:30;;;;;;;74.32;52.70;;;24.00;61.80;;;;;;1918681;74;21228;-72
2023/02/01 03:40:06;;;;;;;75.40;52.62;;;24.00;61.30;;;;;;1922310;73;21241;-69
2023/02/01 03:42:40;;;;;;;75.28;53.73;;;24.10;61.10;;;;;;1921048;74;21157;-70
2023/02/01 03:45:25;;;;;;;72.17;51.63;;;24.20;61.00;;;;;;1885798;74;21120;-70
2023/02/01 03:47:58;;;;;;;79.05;54.38;;;24.40;60.80;;;;;;1924021;73;21107;-71
2023/02/01 03:50:32;;;;;;;71.40;52.43;;;24.50;60.50;;;;;;1867750;75;21139;-71
2023/02/01 03:53:12;;;;;;;67.80;49.83;;;24.60;60.40;;;;;;1905765;73;21186;-72
2023/02/01 03:55:44;;;;;;;75.37;51.60;;;24.70;59.70;;;;;;1907125;73;21598;-71
2023/02/01 03:58:17;;;;;;;68.90;48.83;;;24.80;59.50;;;;;;1903530;73;21190;-71
2023/02/01 04:00:59;;;;;;;71.65;48.52;;;24.80;59.30;;;;;;1906621;73;21236;-71
2023/02/01 04:03:32;;;;;;;57.50;41.48;;;25.00;58.50;;;;;;1913150;73;21122;-72
2023/02/01 04:06:02;;;;;;;57.05;41.92;;;25.00;57.90;;;;;;1912299;73;21107;-71
2023/02/01 04:08:33;;;;;;;63.40;42.80;;;25.10;56.60;;;;;;1912566;74;21194;-71
2023/02/01 04:11:04;;;;;;;59.05;42.67;;;25.20;56.50;;;;;;1908242;73;21213;-72
2023/02/01 04:13:37;;;;;;;63.35;41.58;;;25.30;56.10;;;;;;1910568;73;21797;-71
2023/02/01 04:16:08;;;;;;;52.03;35.83;;;25.50;54.90;;;;;;1907056;73;21287;-70
2023/02/01 04:18:40;;;;;;;44.88;32.35;;;25.60;54.30;;;;;;1910951;73;21715;-75
2023/02/01 04:21:11;;;;;;;52.20;36.73;;;25.70;54.70;;;;;;1908934;73;21067;-72
2023/02/01 04:23:42;;;;;;;41.37;30.55;;;25.80;54.10;;;;;;1903149;73;21135;-69
2023/02/01 04:26:13;;;;;;;45.12;29.20;;;25.90;53.50;;;;;;1921073;73;21867;-71
2023/02/01 04:28:47;;;;;;;48.95;33.88;;;26.00;52.60;;;;;;1877155;74;21189;-71
2023/02/01 04:31:18;;;;;;;46.60;34.20;;;26.00;52.20;;;;;;1911571;73;21186;-71
2023/02/01 04:33:54;;;;;;;38.65;29.60;;;26.10;51.70;;;;;;1904771;74;21234;-71
2023/02/01 04:36:26;;;;;;;49.15;31.17;;;26.20;52.00;;;;;;1908292;73;21194;-71
2023/02/01 04:38:58;;;;;;;44.80;30.08;;;26.30;51.20;;;;;;1909494;74;21139;-71
2023/02/01 04:41:30;;;;;;;43.17;28.98;;;26.40;52.20;;;;;;1900769;74;21433;-71
2023/02/01 04:44:02;;;;;;;39.75;28.07;;;28.20;51.30;;;;;;1899739;73;21205;-70
2023/02/01 04:46:32;;;;;;;41.23;28.55;;;26.60;51.20;;;;;;1907200;73;21658;-72
2023/02/01 04:49:03;;;;;;;38.83;26.35;;;;;;;;;;1911177;74;21217;-72
2023/02/01 04:51:34;;;;;;;35.03;27.02;;;26.80;49.10;;;;;;1903142;74;21201;-71
2023/02/01 04:54:11;;;;;;;38.98;27.65;;;27.00;49.60;;;;;;1904633;74;21115;-72
2023/02/01 04:56:41;;;;;;;40.20;26.45;;;27.10;50.10;;;;;;1907679;74;21119;-72
2023/02/01 04:59:13;;;;;;;35.52;26.25;;;27.20;49.80;;;;;;1903373;73;21131;-72
2023/02/01 05:01:50;;;;;;;47.83;32.35;;;27.30;50.10;;;;;;1903104;74;21956;-71
2023/02/01 05:04:21;;;;;;;35.60;27.85;;;27.40;50.20;;;;;;1920465;73;21574;-72
2023/02/01 05:06:51;;;;;;;44.10;28.77;;;27.50;49.70;;;;;;1921914;74;21705;-70
2023/02/01 05:09:22;;;;;;;38.28;27.27;;;27.60;49.40;;;;;;1925998;73;21170;-69
2023/02/01 05:14:43;;;;;;;44.48;30.48;;;27.70;48.80;;;;;;1921456;74;21701;-71
2023/02/01 05:17:14;;;;;;;46.48;30.55;;;27.80;47.10;;;;;;1907064;73;21139;-71
2023/02/01 05:19:45;;;;;;;38.55;29.48;;;27.80;46.60;;;;;;1906270;74;21159;-70
2023/02/01 05:22:16;;;;;;;42.30;30.15;;;27.90;48.00;;;;;;1904041;73;21575;-71
2023/02/01 05:24:47;;;;;;;41.58;30.75;;;28.00;47.30;;;;;;1905194;74;21130;-71
2023/02/01 05:27:18;;;;;;;50.80;34.00;;;;;;;;;;1898674;73;21115;-72
2023/02/01 05:29:52;;;;;;;43.68;31.87;;;28.00;47.30;;;;;;1906884;73;21119;-72
2023/02/01 05:32:23;;;;;;;43.15;30.08;;;28.20;48.20;;;;;;1875905;74;21171;-72
2023/02/01 05:34:57;;;;;;;42.80;30.27;;;28.20;49.60;;;;;;1906165;74;21136;-71
2023/02/01 05:37:28;;;;;;;39.00;30.60;;;;;;;;;;1910147;74;21116;-71
2023/02/01 05:40:00;;;;;;;43.83;31.33;;;28.30;78.50;;;;;;1904497;74;21139;-71
2023/02/01 05:42:31;;;;;;;47.35;33.53;;;;;;;;;;1901081;73;21186;-72
2023/02/01 05:45:01;;;;;;;43.35;33.02;;;;;;;;;;1903407;73;21119;-71
2023/02/01 05:47:32;;;;;;;44.98;32.23;;;28.70;93.20;;;;;;1910346;74;21116;-71
2023/02/01 05:50:03;;;;;;;49.38;34.90;;;28.60;47.10;;;;;;1912078;74;21119;-72
2023/02/01 05:52:34;;;;;;;40.03;28.38;;;28.60;46.90;;;;;;1911455;74;21620;-70
2023/02/01 05:55:05;;;;;;;40.03;31.37;;;28.70;46.00;;;;;;1929209;73;21117;-71
2023/02/01 05:57:36;;;;;;;34.65;29.05;;;28.70;46.00;;;;;;1929109;74;21104;-71
2023/02/01 06:00:08;;;;;;;41.98;31.25;;;28.70;45.20;;;;;;1923154;73;21199;-70
2023/02/01 06:02:40;;;;;;;42.03;29.50;;;28.80;46.00;;;;;;1922506;74;21706;-71
2023/02/01 06:05:11;;;;;;;36.23;28.27;;;28.80;45.80;;;;;;1920410;73;21200;-73
2023/02/01 06:07:45;;;;;;;36.03;27.95;;;28.80;44.40;;;;;;1927213;73;21158;-71
2023/02/01 06:10:16;;;;;;;40.55;27.42;;;28.90;46.30;;;;;;1925686;73;22149;-71
2023/02/01 06:12:47;;;;;;;43.15;28.85;;;28.90;44.60;;;;;;1911934;74;21174;-72
2023/02/01 06:15:19;;;;;;;34.78;27.67;;;29.00;44.80;;;;;;1930382;73;21228;-71
2023/02/01 06:17:50;;;;;;;39.85;28.07;;;29.00;43.80;;;;;;1909151;74;21119;-72
2023/02/01 06:20:26;;;;;;;34.55;26.87;;;29.00;43.80;;;;;;1930274;73;21193;-71
2023/02/01 06:22:54;;;;;;;32.23;27.02;;;28.90;43.70;;;;;;1850831;75;21665;-69
2023/02/01 06:25:25;;;;;;;34.90;27.75;;;28.90;44.60;;;;;;1912575;73;21326;-69
2023/02/01 06:27:56;;;;;;;36.77;28.05;;;29.00;44.40;;;;;;1918318;73;21177;-71
2023/02/01 06:30:27;;;;;;;35.45;28.32;;;29.00;43.40;;;;;;1923325;73;21141;-72
2023/02/01 06:32:59;;;;;;;38.17;27.85;;;29.20;43.20;;;;;;1914914;73;21091;-72
2023/02/01 06:35:30;;;;;;;41.05;28.42;;;29.20;43.60;;;;;;1913943;73;21618;-71
2023/02/01 06:38:00;;;;;;;42.40;28.83;;;29.30;43.70;;;;;;1916202;73;21075;-72
2023/02/01 06:40:31;;;;;;;39.55;28.90;;;29.40;49.50;;;;;;1918407;73;22266;-72
2023/02/01 06:43:02;;;;;;;44.18;30.60;;;29.40;53.60;;;;;;1915753;74;21154;-71
2023/02/01 06:45:35;;;;;;;39.80;29.65;;;;;;;;;;1919503;73;21126;-72
2023/02/01 06:48:08;;;;;;;43.35;28.38;;;;;;;;;;1915442;74;21235;-74
2023/02/01 06:50:40;;;;;;;39.23;27.93;;;;;;;;;;1916522;73;21638;-74
2023/02/01 06:53:12;;;;;;;36.28;27.85;;;;;;;;;;1907396;73;21250;-74
2023/02/01 06:55:54;;;;;;;45.90;28.35;;;;;;;;;;1902846;74;21185;-73
2023/02/01 06:58:30;;;;;;;37.30;27.80;;;;;;;;;;1903903;73;21115;-73
2023/02/01 07:01:16;;;;;;;42.40;28.97;;;;;;;;;;1901779;73;21821;-74
2023/02/01 07:03:52;;;;;;;44.70;28.38;;;29.70;55.80;;;;;;1867501;74;21740;-71
2023/02/01 07:06:25;;;;;;;37.75;29.42;;;;;;;;;;1846409;76;22090;-72
2023/02/01 07:08:56;;;;;;;39.45;28.67;;;29.70;47.70;;;;;;1863792;75;21891;-73
2023/02/01 07:11:28;;;;;;;42.35;27.30;;;29.80;65.10;;;;;;1916265;73;21571;-72
2023/02/01 07:14:00;;;;;;;38.05;28.07;;;29.80;60.30;;;;;;1877146;74;21211;-71
2023/02/01 07:16:34;;;;;;;42.95;30.02;;;;;;;;;;1922515;73;21580;-72
2023/02/01 07:19:05;;;;;;;39.67;27.22;;;29.80;63.60;;;;;;1920595;73;21082;-72
2023/02/01 07:21:36;;;;;;;42.93;29.42;;;29.80;66.50;;;;;;1902237;74;21208;-70
2023/02/01 07:24:14;;;;;;;41.35;30.23;;;30.00;60.90;;;;;;1904582;73;21579;-71
2023/02/01 07:26:44;;;;;;;40.35;28.65;;;29.80;60.60;;;;;;1903822;73;21134;-72
2023/02/01 07:29:21;;;;;;;39.58;29.63;;;29.90;60.80;;;;;;1906273;73;21158;-72
2023/02/01 07:31:48;;;;;;;39.40;29.87;;;29.90;61.20;;;;;;1903747;73;21178;-70
2023/02/01 07:34:32;;;;;;;40.48;28.30;;;29.80;60.80;;;;;;1864475;75;21156;-72
2023/02/01 07:37:03;;;;;;;42.70;29.42;;;29.70;60.40;;;;;;1898209;73;21176;-69
2023/02/01 07:39:38;;;;;;;35.08;27.62;;;29.60;62.50;;;;;;1905770;74;21156;-70
2023/02/01 07:42:10;;;;;;;40.60;31.60;;;29.70;61.70;;;;;;1896164;73;21705;-69
2023/02/01 07:44:41;;;;;;;38.98;28.62;;;29.50;61.90;;;;;;1900234;73;21185;-70
2023/02/01 07:47:12;;;;;;;43.40;32.15;;;29.50;61.80;;;;;;1910153;74;21132;-72
2023/02/01 07:49:42;;;;;;;39.48;28.42;;;29.50;62.40;;;;;;1910468;73;21138;-72
2023/02/01 07:52:15;;;;;;;33.95;28.70;;;29.40;62.70;;;;;;1901561;73;21177;-73
2023/02/01 07:54:47;;;;;;;39.50;28.45;;;29.40;62.40;;;;;;1907203;73;21130;-88
2023/02/01 07:57:32;;;;;;;42.60;30.15;;;29.30;62.60;;;;;;1927931;73;21192;-87
2023/02/01 08:02:55;;;;;;;39.33;27.90;;;29.30;62.10;;;;;;1864028;75;21095;-83
2023/02/01 08:05:26;;;;;;;37.95;26.55;;;29.20;62.10;;;;;;1900566;74;21153;-85
2023/02/01 08:08:00;;;;;;;42.35;28.95;;;29.20;62.60;;;;;;1898153;74;21146;-88
2023/02/01 08:10:33;;;;;;;38.13;27.85;;;29.10;63.20;;;;;;1903083;74;21108;-88
2023/02/01 08:13:07;;;;;;;37.88;27.45;;;29.00;63.70;;;;;;1924209;72;21063;-86
2023/02/01 08:15:39;;;;;;;35.83;28.50;;;28.90;63.90;;;;;;1913876;72;21144;-87
2023/02/01 08:18:20;;;;;;;38.58;27.27;;;29.00;64.20;;;;;;1911401;74;21599;-89
2023/02/01 08:20:53;;;;;;;41.53;27.40;;;28.90;63.40;;;;;;1903258;74;21107;-89
2023/02/01 08:23:25;;;;;;;38.17;28.20;;;29.00;64.00;;;;;;1928019;74;21250;-89
2023/02/01 08:25:57;;;;;;;32.60;25.92;;;28.90;63.90;;;;;;1904128;74;21119;-93
2023/02/01 08:28:28;;;;;;;38.38;27.65;;;28.90;64.20;;;;;;1910894;73;21159;-88
2023/02/01 08:31:15;;;;;;;41.80;26.68;;;28.90;64.20;;;;;;1931157;74;21138;-88
2023/02/01 08:33:47;;;;;;;38.42;25.17;;;28.90;64.00;;;;;;1901045;74;21241;-88
2023/02/01 08:36:18;;;;;;;34.30;26.12;;;28.80;64.10;;;;;;1906017;74;21594;-88
2023/02/01 08:38:55;;;;;;;29.92;26.07;;;28.80;64.50;;;;;;1932132;74;21102;-85
2023/02/01 08:41:29;;;;;;;34.98;26.73;;;28.80;65.00;;;;;;1919644;72;21148;-88
2023/02/01 08:44:00;;;;;;;38.83;28.87;;;28.90;64.60;;;;;;1917844;72;21171;-90
2023/02/01 08:46:49;;;;;;;49.40;33.13;;;28.80;65.10;;;;;;1935164;74;21710;-90
2023/02/01 08:49:25;;;;;;;41.28;28.98;;;28.80;65.60;;;;;;1915572;74;21174;-90
2023/02/01 08:51:54;;;;;;;38.65;25.08;;;28.80;65.70;;;;;;1909855;74;21128;-89
2023/02/01 08:54:28;;;;;;;34.45;25.90;;;28.80;64.70;;;;;;1921669;74;21185;-88
2023/02/01 08:57:02;;;;;;;41.23;27.60;;;28.90;65.20;;;;;;1921038;74;21115;-88
2023/02/01 08:59:33;;;;;;;37.88;28.12;;;28.80;65.20;;;;;;1892333;75;21162;-89
2023/02/01 09:02:05;;;;;;;35.92;26.10;;;28.80;64.60;;;;;;1922221;74;21122;-90
2023/02/01 09:04:44;;;;;;;35.13;27.25;;;28.90;64.60;;;;;;1890668;75;21143;-88
2023/02/01 09:07:16;;;;;;;38.38;26.82;;;28.90;64.40;;;;;;1924594;74;21139;-90
2023/02/01 09:10:00;;;;;;;;;;;;;;;;;;;;;
2023/02/01 09:12:41;;;;;;;40.20;27.48;;;28.90;65.10;;;;;;1916531;74;21102;-89
2023/02/01 09:15:21;;;;;;;39.23;27.85;;;29.00;64.60;;;;;;1923262;74;21712;-88
2023/02/01 09:17:49;;;;;;;39.80;26.20;;;28.90;65.30;;;;;;1928234;74;21794;-89
2023/02/01 09:20:29;;;;;;;33.95;26.07;;;29.00;65.40;;;;;;1934921;73;21151;-88
2023/02/01 09:23:52;;;;;;;35.15;26.45;;;29.00;65.50;;;;;;1927858;73;21144;-90
2023/02/01 09:26:11;;;;;;;39.27;25.70;;;29.00;64.70;;;;;;1912661;74;21158;-90
2023/02/01 09:28:51;;;;;;;33.20;25.12;;;29.00;65.20;;;;;;1923194;74;21122;-90
2023/02/01 09:31:29;;;;;;;38.53;25.88;;;28.90;65.20;;;;;;1921442;74;21165;-89
2023/02/01 09:34:02;;;;;;;35.55;25.77;;;28.90;65.30;;;;;;1923955;74;21927;-90
2023/02/01 09:36:34;;;;;;;39.70;26.95;;;28.90;65.10;;;;;;1918872;74;21217;-90
2023/02/01 09:39:08;;;;;;;40.12;27.17;;;28.90;65.80;;;;;;1898068;75;21176;-87
2023/02/01 09:42:04;;;;;;;35.50;25.72;;;28.90;65.90;;;;;;1912570;75;21119;-88
2023/02/01 09:45:20;;;;;;;39.58;26.60;;;28.80;65.50;;;;;;1914412;75;21126;-89
2023/02/01 09:47:55;;;;;;;41.35;26.90;;;28.70;65.60;;;;;;1860497;76;21130;-90
2023/02/01 09:50:40;;;;;;;36.90;27.45;;;28.90;66.10;;;;;;1913158;75;21237;-89
2023/02/01 09:53:29;;;;;;;41.53;27.62;;;28.70;66.70;;;;;;1924296;73;21189;-85
2023/02/01 09:56:09;;;;;;;38.73;27.82;;;28.70;66.20;;;;;;1838206;76;21205;-86
2023/02/01 09:58:44;;;;;;;41.40;30.47;;;28.60;66.60;;;;;;1907644;74;21111;-89
2023/02/01 10:01:39;;;;;;;42.45;27.50;;;28.60;67.00;;;;;;1914227;73;21292;-89
2023/02/01 10:04:30;;;;;;;39.50;27.07;;;28.50;67.50;;;;;;1886505;74;21186;-89
2023/02/01 10:07:31;;;;;;;43.20;29.10;;;28.40;67.50;;;;;;1900638;73;21142;-88
2023/02/01 10:10:14;;;;;;;35.20;27.95;;;28.40;67.10;;;;;;1917354;73;21229;-90
2023/02/01 10:13:06;;;;;;;42.70;30.90;;;28.40;67.50;;;;;;1850989;76;21200;-87
2023/02/01 10:16:18;;;;;;;42.73;30.95;;;28.40;67.80;;;;;;1918644;73;21092;-90
2023/02/01 10:19:08;;;;;;;41.53;31.05;;;28.30;68.00;;;;;;1908402;73;21184;-89
2023/02/01 10:21:50;;;;;;;41.08;29.85;;;28.30;69.20;;;;;;1907087;73;21212;-86
2023/02/01 10:24:40;;;;;;;44.93;30.17;;;28.20;68.40;;;;;;1904745;73;21207;-88
2023/02/01 10:27:26;;;;;;;46.10;30.97;;;28.20;68.40;;;;;;1860063;75;21911;-90
2023/02/01 10:30:01;;;;;;;44.23;31.20;;;28.10;68.60;;;;;;1909903;74;21123;-86
2023/02/01 10:32:37;;;;;;;42.75;30.32;;;28.10;69.00;;;;;;1912036;74;21177;-90
2023/02/01 10:35:19;;;;;;;47.05;29.90;;;28.00;69.20;;;;;;1917830;74;21111;-88
2023/02/01 10:37:50;;;;;;;41.13;29.10;;;27.90;69.20;;;;;;1927815;74;21232;-89
2023/02/01 10:40:24;;;;;;;41.88;29.92;;;27.90;69.20;;;;;;1926388;74;21194;-87
2023/02/01 10:43:01;;;;;;;41.00;32.00;;;27.80;69.40;;;;;;1919383;73;21166;-88
2023/02/01 10:45:34;;;;;;;37.28;28.87;;;27.80;69.60;;;;;;1923523;74;21143;-90
2023/02/01 10:48:06;;;;;;;46.95;29.50;;;27.70;69.70;;;;;;1912293;74;21233;-88
2023/02/01 10:50:41;;;;;;;50.20;28.25;;;27.70;69.80;;;;;;1909869;74;21201;-88
2023/02/01 10:53:21;;;;;;;47.20;31.37;;;27.60;69.80;;;;;;1893016;74;21268;-90
2023/02/01 10:55:56;;;;;;;43.90;32.05;;;27.60;69.90;;;;;;1915765;74;21154;-88
2023/02/01 10:58:32;;;;;;;54.15;31.25;;;27.60;70.30;;;;;;1883361;74;21186;-88
2023/02/01 11:01:08;;;;;;;44.93;29.85;;;27.50;70.20;;;;;;1924729;74;21216;-89
2023/02/01 11:04:02;;;;;;;45.95;30.00;;;27.50;70.40;;;;;;1890626;75;21152;-92
2023/02/01 11:06:36;;;;;;;49.30;31.87;;;27.50;70.70;;;;;;1929668;74;21205;-91
2023/02/01 11:09:26;;;;;;;40.60;31.17;;;27.40;70.90;;;;;;1916447;74;21138;-90
2023/02/01 11:12:00;;;;;;;43.78;31.90;;;27.30;70.70;;;;;;1918922;74;22014;-90
2023/02/01 11:14:40;;;;;;;42.47;32.77;;;27.30;71.20;;;;;;1920635;74;21122;-90
2023/02/01 11:17:26;;;;;;;52.73;34.53;;;27.20;70.80;;;;;;1915964;73;21172;-88
2023/02/01 11:20:02;;;;;;;50.40;32.05;;;27.10;71.40;;;;;;1918089;73;21083;-89
2023/02/01 11:22:40;;;;;;;48.55;32.83;;;27.00;72.30;;;;;;1914065;74;21168;-88
2023/02/01 11:25:14;;;;;;;50.33;32.80;;;27.00;72.50;;;;;;1924415;73;21177;-88
2023/02/01 11:27:47;;;;;;;52.93;33.50;;;27.00;72.90;;;;;;1852111;76;21122;-90
2023/02/01 11:30:40;;;;;;;47.45;31.50;;;27.00;73.20;;;;;;1897888;73;21211;-90
2023/02/01 11:33:42;;;;;;;57.40;31.70;;;26.80;73.30;;;;;;1892626;71;21119;-87
2023/02/01 11:36:41;;;;;;;47.23;31.80;;;26.80;73.10;;;;;;1885412;76;21164;-95
2023/02/01 11:39:22;;;;;;;46.65;32.20;;;26.70;73.60;;;;;;1961169;72;21116;-88
2023/02/01 11:42:08;;;;;;;52.53;33.50;;;26.70;73.90;;;;;;1959889;72;21206;-90
2023/02/01 11:44:51;;;;;;;;;;;;;;;;;;;;;
2023/02/01 11:50:07;;;;;;;46.55;33.05;;;26.50;73.20;;;;;;1938337;73;21178;-89
2023/02/01 11:52:43;;;;;;;50.38;33.50;;;26.50;73.40;;;;;;1914022;73;21113;-89
2023/02/01 11:55:26;;;;;;;55.50;35.00;;;26.40;73.40;;;;;;1929723;73;21798;-92
2023/02/01 11:58:09;;;;;;;44.53;33.53;;;26.40;72.90;;;;;;1919269;73;21146;-91
2023/02/01 12:01:06;;;;;;;48.60;32.98;;;26.30;72.80;;;;;;1902912;72;21096;-92
2023/02/01 12:03:48;;;;;;;46.60;32.08;;;26.40;72.90;;;;;;1978269;72;21115;-90
2023/02/01 12:06:22;;;;;;;47.45;33.92;;;26.30;73.10;;;;;;1925609;72;21103;-92
2023/02/01 12:09:19;;;;;;;53.75;34.90;;;26.30;73.90;;;;;;1861215;75;21580;-87
2023/02/01 12:12:01;;;;;;;44.15;34.43;;;26.20;76.10;;;;;;1945040;72;21224;-89
2023/02/01 12:15:07;;;;;;;52.05;34.92;;;26.20;82.70;;;;;;1939397;72;21119;-91
2023/02/01 12:17:38;;;;;;;;;;;26.20;81.00;;;;;;1914883;74;21185;-92
2023/02/01 12:20:17;;;;;;;47.78;35.45;;;26.20;79.00;;;;;;1910457;74;20178;-88
2023/02/01 12:22:53;;;;;;;47.70;35.15;;;26.20;79.00;;;;;;1945569;73;21636;-91
2023/02/01 12:25:26;;;;;;;52.23;37.00;;;26.20;76.90;;;;;;1949534;72;21151;-89
2023/02/01 12:28:11;;;;;;;50.38;36.88;;;26.20;77.40;;;;;;1945877;73;21219;-86
2023/02/01 12:30:54;;;;;;;56.65;37.40;;;26.10;78.10;;;;;;1976464;71;21090;-89
2023/02/01 12:33:36;;;;;;;55.65;37.15;;;26.20;77.50;;;;;;1978891;71;21017;-86
2023/02/01 12:36:18;;;;;;;58.40;39.10;;;26.10;77.60;;;;;;1872128;73;21345;-88
2023/02/01 12:39:07;;;;;;;59.58;37.40;;;26.00;76.70;;;;;;1979847;70;21104;-89
2023/02/01 12:41:49;;;;;;;53.35;37.53;;;26.00;57.40;;;;;;1978839;71;21141;-88
2023/02/01 12:44:25;;;;;;;61.37;38.05;;;25.90;55.00;;;;;;1987312;70;21137;-87
2023/02/01 12:47:13;;;;;;;61.92;41.40;;;25.80;55.10;;;;;;1981460;71;21161;-88
2023/02/01 12:49:55;;;;;;;61.68;40.95;;;25.90;56.20;;;;;;1974162;71;21037;-87
2023/02/01 12:52:51;;;;;;;57.38;40.98;;;25.90;66.20;;;;;;1978698;71;21558;-89
2023/02/01 12:55:52;;;;;;;59.65;41.85;;;25.80;58.20;;;;;;1983754;70;21126;-87
2023/02/01 12:58:26;;;;;;;62.15;42.78;;;25.80;56.20;;;;;;1978484;72;21161;-89
2023/02/01 13:01:09;;;;;;;57.25;40.83;;;25.80;55.60;;;;;;1980623;71;21127;-89
2023/02/01 13:03:59;;;;;;;61.55;42.53;;;25.80;55.50;;;;;;1907183;72;21111;-89
2023/02/01 13:06:38;;;;;;;61.45;41.90;;;25.80;55.50;;;;;;1982405;71;21160;-88
2023/02/01 13:09:30;;;;;;;55.40;43.15;;;25.80;55.70;;;;;;1981877;71;21181;-88
2023/02/01 13:12:07;;;;;;;63.42;43.55;;;25.80;55.80;;;;;;1986645;71;21169;-88
2023/02/01 13:14:38;;;;;;;59.18;43.90;;;25.80;56.10;;;;;;1982279;71;21097;-89
2023/02/01 13:17:17;;;;;;;63.35;44.38;;;25.70;56.40;;;;;;1982290;71;21229;-90
2023/02/01 13:19:57;;;;;;;59.77;43.38;;;25.70;56.60;;;;;;1978841;71;21099;-90
2023/02/01 13:22:52;;;;;;;65.28;43.75;;;25.70;56.90;;;;;;1984271;71;21208;-88
2023/02/01 13:25:50;;;;;;;61.70;43.28;;;25.60;56.90;;;;;;1978155;71;21207;-86
2023/02/01 13:28:27;;;;;;;61.77;43.05;;;25.60;57.00;;;;;;1987118;71;21098;-89
2023/02/01 13:31:32;;;;;;;60.12;42.98;;;25.60;57.20;;;;;;1935584;72;21196;-88
2023/02/01 13:34:26;;;;;;;62.73;43.00;;;25.60;57.30;;;;;;1887244;72;21756;-90
2023/02/01 13:37:14;;;;;;;62.35;44.03;;;25.50;57.40;;;;;;1938650;73;21646;-88
2023/02/01 13:40:06;;;;;;;57.38;42.98;;;25.50;57.70;;;;;;1935298;73;21167;-88
2023/02/01 13:42:52;;;;;;;69.17;45.30;;;25.50;57.80;;;;;;1934138;73;21253;-88
2023/02/01 13:45:26;;;;;;;65.30;46.30;;;25.50;57.90;;;;;;1935078;73;21217;-89
2023/02/01 13:47:59;;;;;;;61.58;43.73;;;25.40;57.90;;;;;;1930558;73;21223;-90